createdAt,value
2019-06-26T00:00:23.763Z,78.61
2019-06-26T00:01:23.753Z,79.28
2019-06-26T00:02:23.739Z,78.48
2019-06-26T00:03:23.733Z,77.98
2019-06-26T00:04:23.719Z,78.28
2019-06-26T00:05:23.720Z,79.62
2019-06-26T00:06:23.704Z,78.68
2019-06-26T00:07:23.685Z,79.08
2019-06-26T00:08:23.679Z,78.98
2019-06-26T00:09:23.667Z,79.88
2019-06-26T00:10:23.659Z,79.98
2019-06-26T00:11:23.653Z,80.79
2019-06-26T00:12:23.635Z,80.18
2019-06-26T00:13:26.680Z,79.82
2019-06-26T00:14:23.645Z,79.92
2019-06-26T00:15:23.625Z,78.92
2019-06-26T00:16:23.588Z,79.68
2019-06-26T00:17:23.582Z,79.92
2019-06-26T00:18:23.567Z,79.72
2019-06-26T00:19:23.556Z,80.72
2019-06-26T00:20:23.549Z,80.02
2019-06-26T00:21:23.535Z,80.72
2019-06-26T00:22:23.526Z,81.12
2019-06-26T00:23:23.511Z,83.23
2019-06-26T00:24:23.507Z,81.73
2019-06-26T00:25:23.489Z,81.32
2019-06-26T00:26:23.479Z,81.42
2019-06-26T00:27:23.469Z,81.87
2019-06-26T00:28:23.473Z,81.52
2019-06-26T00:29:23.455Z,81.46
2019-06-26T00:30:23.439Z,80.66
2019-06-26T00:31:23.431Z,81.36
2019-06-26T00:32:23.416Z,80.96
2019-06-26T00:33:23.407Z,81.67
2019-06-26T00:34:23.399Z,82.06
2019-06-26T00:35:23.382Z,81.46
2019-06-26T00:36:23.373Z,82.06
2019-06-26T00:37:23.360Z,81.56
2019-06-26T00:38:23.357Z,81.67
2019-06-26T00:39:23.342Z,81.87
2019-06-26T00:40:23.332Z,83.17
2019-06-26T00:41:23.336Z,81.56
2019-06-26T00:42:23.307Z,81.87
2019-06-26T00:43:23.301Z,83.97
2019-06-26T00:44:23.284Z,83.37
2019-06-26T00:45:23.275Z,83.21
2019-06-26T00:46:23.272Z,83.31
2019-06-26T00:47:23.256Z,83.71
2019-06-26T00:48:23.250Z,83.21
2019-06-26T00:49:23.236Z,83.61
2019-06-26T00:50:23.221Z,83.67
2019-06-26T00:51:23.210Z,84.11
2019-06-26T00:52:23.200Z,83.61
2019-06-26T00:53:23.191Z,83.31
2019-06-26T00:54:23.179Z,84.01
2019-06-26T00:55:23.172Z,83.81
2019-06-26T00:56:23.164Z,83.31
2019-06-26T00:57:23.149Z,84.21
2019-06-26T00:58:23.136Z,83.81
2019-06-26T00:59:23.129Z,83.61
2019-06-26T01:00:23.114Z,83.61
2019-06-26T01:01:23.103Z,83.95
2019-06-26T01:02:23.092Z,84.05
2019-06-26T01:03:23.085Z,85.86
2019-06-26T01:04:23.071Z,84.85
2019-06-26T01:05:23.086Z,84.75
2019-06-26T01:06:23.050Z,83.75
2019-06-26T01:07:23.037Z,83.85
2019-06-26T01:08:23.026Z,84.05
2019-06-26T01:09:23.022Z,85.25
2019-06-26T01:10:23.016Z,85.16
2019-06-26T01:11:22.995Z,85.16
2019-06-26T01:12:22.988Z,87.26
2019-06-26T01:13:22.985Z,85.46
2019-06-26T01:14:22.966Z,86.06
2019-06-26T01:15:22.952Z,85.80
2019-06-26T01:16:22.943Z,86.26
2019-06-26T01:17:22.935Z,86.06
2019-06-26T01:18:22.939Z,85.86
2019-06-26T01:19:22.911Z,86.20
2019-06-26T01:20:22.899Z,86.20
2019-06-26T01:21:22.888Z,85.60
2019-06-26T01:22:22.874Z,85.75
2019-06-26T01:23:22.872Z,86.10
2019-06-26T01:24:22.857Z,85.80
2019-06-26T01:25:22.844Z,86.20
2019-06-26T01:26:22.833Z,86.50
2019-06-26T01:27:22.824Z,87.10
2019-06-26T01:28:22.814Z,87.71
2019-06-26T01:29:22.801Z,88.81
2019-06-26T01:30:22.793Z,86.80
2019-06-26T01:31:22.796Z,86.60
2019-06-26T01:32:22.769Z,87.10
2019-06-26T01:33:22.775Z,87.51
2019-06-26T01:34:22.745Z,87.30
2019-06-26T01:35:22.737Z,86.80
2019-06-26T01:36:22.729Z,87.51
2019-06-26T01:37:22.713Z,86.60
2019-06-26T01:38:22.698Z,87.30
2019-06-26T01:39:22.710Z,87.91
2019-06-26T01:40:22.682Z,87.71
2019-06-26T01:41:22.884Z,87.51
2019-06-26T01:42:22.667Z,87.10
2019-06-26T01:43:22.661Z,86.80
2019-06-26T01:44:22.640Z,86.90
2019-06-26T01:45:22.627Z,86.90
2019-06-26T01:46:22.617Z,88.31
2019-06-26T01:47:22.611Z,87.10
2019-06-26T01:48:22.594Z,87.30
2019-06-26T01:49:22.584Z,87.10
2019-06-26T01:50:22.578Z,88.11
2019-06-26T01:51:22.565Z,87.41
2019-06-26T01:52:22.550Z,87.10
2019-06-26T01:53:22.546Z,86.70
2019-06-26T01:54:22.541Z,86.94
2019-06-26T01:55:22.517Z,87.60
2019-06-26T01:56:22.517Z,87.30
2019-06-26T01:57:22.513Z,87.21
2019-06-26T01:58:22.489Z,87.45
2019-06-26T01:59:22.477Z,87.15
2019-06-26T02:00:22.475Z,87.85
2019-06-26T02:01:22.461Z,88.85
2019-06-26T02:02:22.443Z,88.45
2019-06-26T02:03:22.428Z,87.85
2019-06-26T02:04:22.420Z,88.85
2019-06-26T02:05:22.409Z,89.46
2019-06-26T02:06:22.399Z,89.26
2019-06-26T02:07:22.392Z,88.45
2019-06-26T02:08:22.383Z,88.55
2019-06-26T02:09:22.408Z,88.65
2019-06-26T02:10:22.362Z,89.20
2019-06-26T02:11:22.344Z,88.45
2019-06-26T02:12:22.333Z,89.36
2019-06-26T02:13:22.348Z,88.95
2019-06-26T02:14:30.914Z,89.26
2019-06-26T02:15:23.298Z,88.15
2019-06-26T02:16:22.301Z,88.19
2019-06-26T02:17:22.280Z,88.09
2019-06-26T02:18:22.276Z,88.29
2019-06-26T02:19:22.260Z,88.45
2019-06-26T02:20:22.299Z,89.56
2019-06-26T02:21:22.239Z,89.36
2019-06-26T02:22:22.227Z,88.79
2019-06-26T02:23:22.216Z,88.45
2019-06-26T02:24:22.220Z,88.70
2019-06-26T02:25:22.197Z,88.29
2019-06-26T02:26:22.185Z,88.79
2019-06-26T02:27:22.173Z,88.49
2019-06-26T02:28:22.161Z,88.19
2019-06-26T02:29:22.152Z,88.49
2019-06-26T02:30:22.141Z,89.30
2019-06-26T02:31:22.136Z,89.20
2019-06-26T02:32:22.117Z,89.50
2019-06-26T02:33:22.114Z,89.50
2019-06-26T02:34:22.100Z,90.20
2019-06-26T02:35:22.093Z,90.30
2019-06-26T02:36:22.074Z,90.30
2019-06-26T02:37:22.062Z,90.20
2019-06-26T02:38:22.057Z,91.71
2019-06-26T02:39:22.040Z,91.61
2019-06-26T02:40:22.032Z,90.20
2019-06-26T02:41:22.021Z,91.21
2019-06-26T02:42:22.010Z,91.61
2019-06-26T02:43:22.001Z,91.91
2019-06-26T02:44:21.990Z,91.82
2019-06-26T02:45:21.974Z,90.55
2019-06-26T02:46:21.963Z,90.55
2019-06-26T02:47:21.993Z,90.55
2019-06-26T02:48:21.944Z,90.85
2019-06-26T02:49:21.933Z,91.41
2019-06-26T02:50:21.971Z,91.05
2019-06-26T02:51:21.911Z,90.55
2019-06-26T02:52:21.901Z,90.25
2019-06-26T02:53:21.886Z,90.75
2019-06-26T02:54:21.882Z,91.21
2019-06-26T02:55:21.867Z,90.50
2019-06-26T02:56:21.856Z,90.65
2019-06-26T02:57:21.846Z,90.65
2019-06-26T02:58:21.837Z,91.41
2019-06-26T02:59:21.877Z,91.61
2019-06-26T03:00:21.818Z,91.61
2019-06-26T03:01:21.807Z,90.61
2019-06-26T03:02:21.794Z,91.31
2019-06-26T03:03:21.781Z,91.51
2019-06-26T03:04:21.771Z,91.21
2019-06-26T03:05:21.757Z,91.51
2019-06-26T03:06:21.747Z,91.61
2019-06-26T03:07:21.735Z,90.50
2019-06-26T03:08:21.737Z,90.61
2019-06-26T03:09:21.713Z,91.41
2019-06-26T03:10:21.710Z,91.41
2019-06-26T03:11:21.699Z,91.11
2019-06-26T03:12:21.683Z,90.50
2019-06-26T03:13:21.669Z,90.61
2019-06-26T03:14:21.659Z,90.50
2019-06-26T03:15:21.649Z,90.50
2019-06-26T03:16:21.639Z,91.71
2019-06-26T03:17:21.627Z,90.70
2019-06-26T03:18:21.614Z,90.50
2019-06-26T03:19:21.613Z,90.41
2019-06-26T03:20:21.593Z,90.91
2019-06-26T03:21:21.586Z,91.61
2019-06-26T03:22:21.585Z,91.51
2019-06-26T03:23:21.567Z,91.31
2019-06-26T03:24:21.549Z,92.41
2019-06-26T03:25:21.546Z,91.71
2019-06-26T03:26:21.528Z,90.20
2019-06-26T03:27:21.516Z,90.30
2019-06-26T03:28:21.507Z,90.30
2019-06-26T03:29:21.532Z,90.50
2019-06-26T03:30:21.490Z,91.47
2019-06-26T03:31:21.475Z,91.37
2019-06-26T03:32:21.463Z,91.17
2019-06-26T03:33:21.467Z,91.37
2019-06-26T03:34:21.449Z,91.63
2019-06-26T03:35:21.431Z,91.52
2019-06-26T03:36:21.420Z,90.42
2019-06-26T03:37:21.406Z,90.12
2019-06-26T03:38:21.400Z,91.32
2019-06-26T03:39:21.386Z,91.28
2019-06-26T03:40:21.379Z,91.28
2019-06-26T03:41:21.364Z,90.58
2019-06-26T03:42:21.358Z,90.33
2019-06-26T03:43:21.349Z,90.48
2019-06-26T03:44:21.339Z,90.48
2019-06-26T03:45:26.222Z,90.33
2019-06-26T03:46:22.387Z,91.34
2019-06-26T03:47:21.312Z,91.14
2019-06-26T03:48:21.287Z,90.48
2019-06-26T03:49:21.279Z,90.03
2019-06-26T03:50:21.273Z,90.17
2019-06-26T03:51:21.256Z,89.98
2019-06-26T03:52:21.242Z,89.94
2019-06-26T03:53:21.231Z,90.13
2019-06-26T03:54:21.222Z,89.47
2019-06-26T03:55:21.211Z,89.33
2019-06-26T03:56:21.203Z,90.23
2019-06-26T03:57:21.194Z,90.33
2019-06-26T03:58:21.182Z,90.03
2019-06-26T03:59:21.172Z,90.23
2019-06-26T04:00:21.216Z,90.33
2019-06-26T04:01:21.142Z,90.44
2019-06-26T04:02:21.129Z,90.33
2019-06-26T04:03:21.122Z,89.94
2019-06-26T04:04:21.110Z,90.23
2019-06-26T04:05:21.120Z,90.29
2019-06-26T04:06:21.086Z,90.29
2019-06-26T04:07:21.077Z,89.43
2019-06-26T04:08:21.064Z,89.09
2019-06-26T04:09:21.053Z,88.73
2019-06-26T04:10:21.042Z,88.68
2019-06-26T04:11:21.042Z,90.19
2019-06-26T04:12:21.022Z,90.29
2019-06-26T04:13:21.009Z,89.99
2019-06-26T04:14:20.999Z,90.49
2019-06-26T04:15:20.989Z,89.99
2019-06-26T04:16:20.978Z,90.25
2019-06-26T04:17:20.967Z,90.35
2019-06-26T04:18:21.004Z,90.15
2019-06-26T04:19:20.947Z,90.25
2019-06-26T04:20:20.935Z,88.75
2019-06-26T04:21:20.939Z,88.84
2019-06-26T04:22:20.914Z,88.75
2019-06-26T04:23:20.902Z,89.04
2019-06-26T04:24:20.892Z,88.04
2019-06-26T04:25:20.883Z,89.11
2019-06-26T04:26:20.874Z,89.20
2019-06-26T04:27:20.859Z,89.00
2019-06-26T04:28:20.849Z,88.50
2019-06-26T04:29:20.849Z,89.66
2019-06-26T04:30:20.830Z,89.46
2019-06-26T04:31:20.816Z,89.26
2019-06-26T04:32:20.805Z,88.86
2019-06-26T04:33:20.795Z,89.36
2019-06-26T04:34:20.785Z,88.56
2019-06-26T04:35:21.096Z,89.16
2019-06-26T04:36:20.769Z,88.52
2019-06-26T04:37:20.751Z,89.22
2019-06-26T04:38:20.740Z,89.02
2019-06-26T04:39:20.732Z,88.62
2019-06-26T04:40:20.791Z,87.32
2019-06-26T04:41:20.715Z,87.37
2019-06-26T04:42:20.698Z,87.12
2019-06-26T04:43:20.687Z,86.77
2019-06-26T04:44:20.677Z,87.18
2019-06-26T04:45:20.665Z,87.68
2019-06-26T04:46:20.657Z,86.18
2019-06-26T04:47:20.645Z,84.53
2019-06-26T04:48:20.632Z,85.43
2019-06-26T04:49:20.623Z,84.83
2019-06-26T04:50:20.613Z,84.79
2019-06-26T04:51:20.601Z,84.89
2019-06-26T04:52:20.590Z,84.49
2019-06-26T04:53:20.581Z,83.65
2019-06-26T04:54:20.574Z,84.65
2019-06-26T04:55:20.559Z,83.21
2019-06-26T04:56:20.550Z,83.11
2019-06-26T04:57:20.536Z,83.51
2019-06-26T04:58:20.526Z,81.41
2019-06-26T04:59:20.563Z,82.67
2019-06-26T05:00:21.848Z,81.54
2019-06-26T05:01:20.496Z,80.98
2019-06-26T05:02:20.486Z,82.93
2019-06-26T05:03:20.475Z,81.73
2019-06-26T05:04:20.463Z,80.20
2019-06-26T05:05:20.453Z,79.60
2019-06-26T05:06:20.441Z,79.00
2019-06-26T05:07:20.431Z,77.57
2019-06-26T05:08:20.424Z,79.03
2019-06-26T05:09:20.545Z,77.53
2019-06-26T05:10:20.399Z,77.03
2019-06-26T05:11:20.391Z,75.80
2019-06-26T05:12:20.380Z,75.60
2019-06-26T05:13:20.368Z,74.97
2019-06-26T05:14:20.366Z,75.07
2019-06-26T05:15:20.345Z,74.87
2019-06-26T05:16:20.727Z,75.03
2019-06-26T05:17:20.325Z,74.87
2019-06-26T05:18:20.313Z,74.24
2019-06-26T05:19:20.301Z,74.93
2019-06-26T05:20:20.291Z,74.43
2019-06-26T05:21:20.283Z,73.74
2019-06-26T05:22:20.271Z,74.40
2019-06-26T05:23:20.266Z,74.90
2019-06-26T05:24:20.249Z,74.90
2019-06-26T05:25:20.236Z,75.69
2019-06-26T05:26:20.228Z,74.63
2019-06-26T05:27:20.217Z,74.60
2019-06-26T05:28:20.210Z,74.30
2019-06-26T05:29:20.199Z,73.90
2019-06-26T05:30:20.184Z,73.60
2019-06-26T05:31:20.184Z,72.01
2019-06-26T05:32:20.166Z,71.98
2019-06-26T05:33:20.158Z,72.44
2019-06-26T05:34:20.147Z,72.14
2019-06-26T05:35:20.135Z,71.45
2019-06-26T05:36:20.133Z,71.34
2019-06-26T05:37:20.115Z,70.32
2019-06-26T05:38:20.102Z,71.31
2019-06-26T05:39:20.122Z,70.98
2019-06-26T05:40:20.101Z,70.32
2019-06-26T05:41:20.074Z,68.60
2019-06-26T05:42:20.061Z,67.28
2019-06-26T05:43:20.056Z,65.83
2019-06-26T05:44:20.055Z,65.13
2019-06-26T05:45:20.035Z,64.51
2019-06-26T05:46:30.519Z,64.70
2019-06-26T05:47:22.157Z,63.19
2019-06-26T05:48:20.009Z,63.89
2019-06-26T05:49:19.989Z,63.68
2019-06-26T05:50:19.979Z,63.56
2019-06-26T05:51:19.968Z,63.33
2019-06-26T05:52:19.954Z,61.42
2019-06-26T05:53:19.944Z,62.21
2019-06-26T05:54:19.933Z,63.13
2019-06-26T05:55:19.919Z,62.27
2019-06-26T05:56:19.908Z,64.35
2019-06-26T05:57:19.897Z,63.26
2019-06-26T05:58:19.885Z,62.34
2019-06-26T05:59:19.896Z,61.22
2019-06-26T06:00:19.871Z,62.87
2019-06-26T06:01:19.858Z,61.42
2019-06-26T06:02:19.845Z,62.81
2019-06-26T06:03:19.832Z,62.71
2019-06-26T06:04:19.823Z,62.81
2019-06-26T06:05:19.817Z,61.19
2019-06-26T06:06:19.802Z,62.21
2019-06-26T06:07:19.791Z,62.08
2019-06-26T06:08:19.780Z,61.82
2019-06-26T06:09:19.770Z,61.13
2019-06-26T06:10:19.764Z,58.77
2019-06-26T06:11:19.753Z,60.54
2019-06-26T06:12:19.742Z,60.54
2019-06-26T06:13:19.729Z,60.08
2019-06-26T06:14:19.721Z,60.80
2019-06-26T06:15:19.716Z,61.26
2019-06-26T06:16:19.700Z,60.77
2019-06-26T06:17:19.690Z,62.35
2019-06-26T06:18:19.681Z,61.13
2019-06-26T06:19:19.674Z,60.74
2019-06-26T06:20:19.664Z,60.94
2019-06-26T06:21:19.646Z,59.23
2019-06-26T06:22:19.645Z,59.83
2019-06-26T06:23:19.625Z,60.52
2019-06-26T06:24:19.684Z,59.03
2019-06-26T06:25:19.606Z,60.61
2019-06-26T06:26:19.595Z,60.19
2019-06-26T06:27:19.607Z,59.60
2019-06-26T06:28:19.577Z,60.95
2019-06-26T06:29:19.579Z,59.34
2019-06-26T06:30:19.557Z,57.97
2019-06-26T06:31:19.551Z,57.87
2019-06-26T06:32:19.536Z,58.95
2019-06-26T06:33:19.530Z,57.79
2019-06-26T06:34:19.521Z,57.97
2019-06-26T06:35:19.507Z,58.16
2019-06-26T06:36:19.496Z,57.94
2019-06-26T06:37:19.498Z,57.03
2019-06-26T06:38:19.473Z,57.54
2019-06-26T06:39:19.468Z,58.04
2019-06-26T06:40:19.464Z,59.15
2019-06-26T06:41:19.450Z,58.62
2019-06-26T06:42:19.435Z,56.83
2019-06-26T06:43:19.435Z,57.10
2019-06-26T06:44:19.413Z,56.80
2019-06-26T06:45:19.410Z,55.62
2019-06-26T06:46:19.394Z,58.30
2019-06-26T06:47:19.385Z,57.42
2019-06-26T06:48:19.370Z,56.90
2019-06-26T06:49:19.368Z,56.58
2019-06-26T06:50:19.361Z,55.43
2019-06-26T06:51:19.338Z,56.11
2019-06-26T06:52:19.328Z,55.23
2019-06-26T06:53:19.322Z,56.24
2019-06-26T06:54:19.310Z,56.99
2019-06-26T06:55:19.347Z,55.13
2019-06-26T06:56:19.292Z,56.87
2019-06-26T06:57:19.286Z,56.97
2019-06-26T06:58:19.269Z,56.74
2019-06-26T06:59:19.263Z,56.09
2019-06-26T07:00:19.260Z,55.40
2019-06-26T07:01:19.242Z,56.35
2019-06-26T07:02:19.239Z,55.74
2019-06-26T07:03:19.251Z,54.39
2019-06-26T07:04:19.278Z,54.88
2019-06-26T07:05:19.198Z,55.18
2019-06-26T07:06:19.210Z,56.55
2019-06-26T07:07:19.286Z,56.42
2019-06-26T07:08:19.173Z,55.44
2019-06-26T07:09:19.163Z,54.75
2019-06-26T07:10:19.150Z,54.83
2019-06-26T07:11:19.140Z,54.83
2019-06-26T07:12:20.884Z,54.02
2019-06-26T07:13:19.119Z,53.23
2019-06-26T07:14:19.110Z,51.37
2019-06-26T07:15:19.097Z,54.04
2019-06-26T07:16:19.152Z,55.07
2019-06-26T07:17:20.870Z,52.23
2019-06-26T07:18:19.075Z,52.03
2019-06-26T07:19:19.061Z,53.11
2019-06-26T07:20:19.045Z,51.86
2019-06-26T07:21:19.040Z,53.03
2019-06-26T07:22:19.033Z,53.30
2019-06-26T07:23:19.014Z,53.01
2019-06-26T07:24:19.007Z,53.03
2019-06-26T07:25:19.008Z,52.03
2019-06-26T07:26:18.987Z,51.73
2019-06-26T07:27:18.976Z,54.31
2019-06-26T07:28:19.033Z,52.55
2019-06-26T07:29:18.989Z,51.34
2019-06-26T07:30:18.952Z,51.73
2019-06-26T07:31:18.942Z,54.77
2019-06-26T07:32:18.923Z,51.81
2019-06-26T07:33:18.918Z,51.59
2019-06-26T07:34:18.903Z,50.51
2019-06-26T07:35:18.887Z,49.82
2019-06-26T07:36:18.901Z,50.78
2019-06-26T07:37:18.865Z,49.29
2019-06-26T07:38:18.854Z,48.41
2019-06-26T07:39:18.877Z,50.76
2019-06-26T07:40:18.838Z,54.28
2019-06-26T07:41:18.833Z,52.22
2019-06-26T07:42:18.853Z,49.99
2019-06-26T07:43:18.811Z,49.60
2019-06-26T07:44:18.798Z,49.11
2019-06-26T07:45:18.784Z,49.31
2019-06-26T07:46:18.774Z,50.46
2019-06-26T07:47:23.477Z,53.49
2019-06-26T07:48:19.764Z,51.56
2019-06-26T07:49:18.743Z,52.78
2019-06-26T07:50:18.734Z,47.53
2019-06-26T07:51:18.728Z,49.07
2019-06-26T07:52:18.714Z,49.95
2019-06-26T07:53:18.706Z,49.19
2019-06-26T07:54:18.693Z,50.44
2019-06-26T07:55:18.696Z,48.87
2019-06-26T07:56:18.686Z,48.36
2019-06-26T07:57:18.672Z,48.54
2019-06-26T07:58:18.685Z,47.46
2019-06-26T07:59:18.647Z,47.27
2019-06-26T08:00:18.637Z,49.41
2019-06-26T08:01:18.642Z,50.71
2019-06-26T08:02:18.621Z,48.24
2019-06-26T08:03:18.610Z,47.92
2019-06-26T08:04:18.598Z,48.61
2019-06-26T08:05:18.588Z,45.95
2019-06-26T08:06:18.580Z,47.02
2019-06-26T08:07:18.576Z,46.34
2019-06-26T08:08:18.558Z,47.05
2019-06-26T08:09:18.550Z,47.83
2019-06-26T08:10:18.541Z,46.73
2019-06-26T08:11:18.533Z,44.87
2019-06-26T08:12:18.542Z,46.63
2019-06-26T08:13:18.513Z,44.87
2019-06-26T08:14:18.507Z,47.71
2019-06-26T08:15:18.494Z,48.68
2019-06-26T08:16:18.486Z,46.36
2019-06-26T08:17:18.486Z,47.92
2019-06-26T08:18:18.570Z,46.85
2019-06-26T08:19:18.458Z,47.73
2019-06-26T08:20:18.443Z,48.12
2019-06-26T08:21:18.430Z,47.73
2019-06-26T08:22:18.420Z,45.56
2019-06-26T08:23:18.421Z,45.26
2019-06-26T08:24:18.450Z,45.44
2019-06-26T08:25:18.397Z,45.64
2019-06-26T08:26:18.382Z,45.81
2019-06-26T08:27:18.376Z,46.00
2019-06-26T08:28:18.362Z,44.81
2019-06-26T08:29:18.349Z,44.81
2019-06-26T08:30:18.448Z,44.56
2019-06-26T08:31:18.334Z,44.93
2019-06-26T08:32:18.381Z,45.61
2019-06-26T08:33:18.316Z,45.22
2019-06-26T08:34:18.322Z,45.17
2019-06-26T08:35:18.384Z,45.95
2019-06-26T08:36:18.289Z,45.26
2019-06-26T08:37:18.369Z,45.54
2019-06-26T08:38:18.266Z,46.30
2019-06-26T08:39:18.262Z,46.27
2019-06-26T08:40:18.438Z,46.76
2019-06-26T08:41:18.238Z,44.90
2019-06-26T08:42:18.228Z,45.68
2019-06-26T08:43:18.223Z,47.61
2019-06-26T08:44:18.220Z,44.01
2019-06-26T08:45:18.202Z,44.18
2019-06-26T08:46:18.189Z,43.21
2019-06-26T08:47:18.184Z,42.80
2019-06-26T08:48:37.886Z,44.72
2019-06-26T08:49:25.675Z,42.11
2019-06-26T08:50:19.159Z,43.48
2019-06-26T08:51:18.152Z,43.48
2019-06-26T08:52:18.143Z,45.31
2019-06-26T08:53:18.127Z,45.01
2019-06-26T08:54:18.113Z,42.95
2019-06-26T08:55:18.103Z,41.01
2019-06-26T08:56:18.096Z,41.28
2019-06-26T08:57:18.091Z,44.97
2019-06-26T08:58:18.072Z,42.15
2019-06-26T08:59:18.065Z,43.98
2019-06-26T09:00:18.456Z,40.58
2019-06-26T09:01:18.049Z,40.31
2019-06-26T09:02:18.037Z,44.78
2019-06-26T09:03:18.085Z,40.48
2019-06-26T09:04:18.023Z,41.84
2019-06-26T09:05:18.012Z,41.74
2019-06-26T09:06:18.242Z,42.74
2019-06-26T09:07:18.019Z,41.42
2019-06-26T09:08:18.174Z,42.10
2019-06-26T09:09:17.973Z,42.00
2019-06-26T09:10:18.554Z,44.04
2019-06-26T09:11:17.957Z,43.24
2019-06-26T09:12:17.944Z,43.26
2019-06-26T09:13:17.997Z,41.39
2019-06-26T09:14:17.951Z,43.26
2019-06-26T09:15:17.920Z,41.49
2019-06-26T09:16:17.973Z,40.83
2019-06-26T09:17:17.910Z,41.61
2019-06-26T09:18:31.041Z,41.32
2019-06-26T09:19:20.880Z,41.71
2019-06-26T09:20:17.871Z,40.25
2019-06-26T09:21:18.321Z,42.56
2019-06-26T09:22:17.886Z,41.08
2019-06-26T09:23:17.842Z,43.15
2019-06-26T09:24:17.850Z,41.39
2019-06-26T09:25:21.978Z,43.36
2019-06-26T09:26:17.816Z,41.20
2019-06-26T09:27:17.807Z,40.67
2019-06-26T09:28:17.844Z,38.99
2019-06-26T09:29:17.789Z,40.15
2019-06-26T09:30:17.785Z,39.28
2019-06-26T09:31:17.774Z,38.31
2019-06-26T09:32:17.759Z,39.11
2019-06-26T09:33:17.757Z,38.23
2019-06-26T09:34:17.743Z,39.29
2019-06-26T09:35:17.740Z,38.83
2019-06-26T09:36:17.775Z,40.01
2019-06-26T09:37:17.774Z,38.95
2019-06-26T09:38:17.710Z,38.27
2019-06-26T09:39:17.700Z,38.44
2019-06-26T09:40:17.690Z,39.62
2019-06-26T09:41:17.751Z,41.36
2019-06-26T09:42:19.764Z,41.16
2019-06-26T09:43:17.679Z,38.04
2019-06-26T09:44:17.653Z,38.23
2019-06-26T09:45:17.708Z,36.87
2019-06-26T09:46:17.637Z,36.56
2019-06-26T09:47:17.633Z,37.84
2019-06-26T09:48:17.650Z,39.37
2019-06-26T09:49:17.608Z,38.79
2019-06-26T09:50:17.668Z,39.18
2019-06-26T09:51:17.663Z,37.43
2019-06-26T09:52:17.748Z,39.16
2019-06-26T09:53:17.569Z,38.58
2019-06-26T09:54:17.599Z,38.78
2019-06-26T09:55:17.555Z,37.13
2019-06-26T09:56:17.545Z,37.51
2019-06-26T09:57:17.542Z,38.48
2019-06-26T09:58:17.525Z,38.40
2019-06-26T09:59:17.523Z,37.73
2019-06-26T10:00:17.528Z,39.08
2019-06-26T10:01:17.503Z,38.02
2019-06-26T10:02:17.486Z,37.15
2019-06-26T10:03:17.476Z,39.55
2019-06-26T10:04:17.517Z,38.29
2019-06-26T10:05:17.500Z,38.70
2019-06-26T10:06:17.451Z,38.78
2019-06-26T10:07:17.444Z,39.16
2019-06-26T10:08:17.436Z,36.72
2019-06-26T10:09:17.436Z,38.56
2019-06-26T10:10:17.434Z,39.26
2019-06-26T10:11:17.411Z,37.32
2019-06-26T10:12:17.399Z,37.71
2019-06-26T10:13:17.392Z,38.00
2019-06-26T10:14:17.387Z,36.04
2019-06-26T10:15:17.386Z,37.49
2019-06-26T10:16:17.358Z,38.93
2019-06-26T10:17:17.362Z,36.02
2019-06-26T10:18:17.339Z,36.00
2019-06-26T10:19:17.337Z,37.15
2019-06-26T10:20:17.318Z,36.38
2019-06-26T10:21:17.314Z,36.47
2019-06-26T10:22:17.304Z,36.38
2019-06-26T10:23:17.305Z,36.20
2019-06-26T10:24:17.310Z,38.73
2019-06-26T10:25:17.280Z,36.99
2019-06-26T10:26:17.274Z,37.55
2019-06-26T10:27:17.256Z,36.96
2019-06-26T10:28:17.249Z,36.86
2019-06-26T10:29:17.278Z,36.66
2019-06-26T10:30:17.241Z,36.96
2019-06-26T10:31:18.446Z,36.00
2019-06-26T10:32:17.215Z,36.51
2019-06-26T10:33:17.197Z,36.91
2019-06-26T10:34:17.191Z,38.35
2019-06-26T10:35:17.178Z,37.48
2019-06-26T10:36:17.174Z,36.20
2019-06-26T10:37:17.159Z,35.70
2019-06-26T10:38:17.155Z,37.63
2019-06-26T10:39:17.146Z,36.32
2019-06-26T10:40:17.135Z,37.59
2019-06-26T10:41:17.141Z,36.99
2019-06-26T10:42:17.114Z,36.20
2019-06-26T10:43:17.104Z,38.39
2019-06-26T10:44:17.095Z,39.94
2019-06-26T10:45:17.086Z,36.74
2019-06-26T10:46:17.089Z,35.76
2019-06-26T10:47:17.074Z,35.74
2019-06-26T10:48:17.071Z,36.52
2019-06-26T10:49:26.885Z,38.20
2019-06-26T10:50:18.040Z,36.52
2019-06-26T10:51:17.043Z,36.63
2019-06-26T10:52:17.023Z,37.05
2019-06-26T10:53:17.026Z,38.41
2019-06-26T10:54:17.021Z,36.66
2019-06-26T10:55:16.997Z,35.21
2019-06-26T10:56:17.017Z,36.12
2019-06-26T10:57:16.989Z,36.20
2019-06-26T10:58:16.987Z,37.57
2019-06-26T10:59:16.967Z,39.39
2019-06-26T11:00:16.950Z,36.86
2019-06-26T11:01:16.947Z,35.68
2019-06-26T11:02:17.194Z,38.02
2019-06-26T11:03:16.924Z,37.04
2019-06-26T11:04:16.913Z,36.72
2019-06-26T11:05:16.905Z,36.61
2019-06-26T11:06:16.896Z,34.84
2019-06-26T11:07:16.896Z,35.32
2019-06-26T11:08:16.884Z,33.70
2019-06-26T11:09:16.873Z,36.11
2019-06-26T11:10:16.858Z,35.94
2019-06-26T11:11:16.852Z,35.92
2019-06-26T11:12:16.856Z,35.45
2019-06-26T11:13:16.851Z,36.24
2019-06-26T11:14:16.824Z,35.99
2019-06-26T11:15:16.818Z,35.31
2019-06-26T11:16:16.805Z,35.60
2019-06-26T11:17:16.797Z,36.36
2019-06-26T11:18:16.785Z,37.21
2019-06-26T11:19:16.775Z,34.29
2019-06-26T11:20:16.767Z,35.26
2019-06-26T11:21:16.764Z,33.42
2019-06-26T11:22:16.750Z,34.97
2019-06-26T11:23:16.739Z,36.96
2019-06-26T11:24:16.734Z,33.10
2019-06-26T11:25:16.721Z,34.08
2019-06-26T11:26:16.715Z,33.55
2019-06-26T11:27:16.702Z,34.25
2019-06-26T11:28:16.695Z,34.63
2019-06-26T11:29:16.689Z,34.15
2019-06-26T11:30:16.677Z,34.73
2019-06-26T11:31:16.666Z,34.63
2019-06-26T11:32:16.659Z,33.67
2019-06-26T11:33:16.648Z,34.54
2019-06-26T11:34:16.668Z,34.44
2019-06-26T11:35:16.632Z,33.65
2019-06-26T11:36:16.619Z,34.12
2019-06-26T11:37:16.612Z,34.31
2019-06-26T11:38:16.606Z,34.10
2019-06-26T11:39:16.611Z,33.33
2019-06-26T11:40:16.589Z,33.44
2019-06-26T11:41:16.575Z,34.89
2019-06-26T11:42:16.590Z,33.14
2019-06-26T11:43:16.563Z,34.48
2019-06-26T11:44:16.546Z,34.31
2019-06-26T11:45:16.545Z,34.39
2019-06-26T11:46:16.533Z,33.91
2019-06-26T11:47:16.519Z,35.64
2019-06-26T11:48:16.537Z,34.29
2019-06-26T11:49:16.508Z,36.03
2019-06-26T11:50:16.582Z,35.72
2019-06-26T11:51:16.480Z,33.70
2019-06-26T11:52:16.474Z,33.62
2019-06-26T11:53:16.464Z,34.21
2019-06-26T11:54:16.455Z,33.55
2019-06-26T11:55:16.446Z,34.52
2019-06-26T11:56:16.439Z,34.79
2019-06-26T11:57:16.430Z,37.00
2019-06-26T11:58:16.428Z,33.42
2019-06-26T11:59:16.409Z,32.96
2019-06-26T12:00:16.398Z,33.72
2019-06-26T12:01:16.393Z,34.00
2019-06-26T12:02:16.379Z,34.10
2019-06-26T12:03:16.404Z,33.83
2019-06-26T12:04:16.360Z,36.34
2019-06-26T12:05:16.377Z,33.34
2019-06-26T12:06:19.222Z,33.33
2019-06-26T12:07:16.332Z,34.41
2019-06-26T12:08:18.487Z,33.34
2019-06-26T12:09:16.335Z,33.92
2019-06-26T12:10:16.305Z,34.39
2019-06-26T12:11:16.312Z,35.72
2019-06-26T12:12:16.285Z,34.10
2019-06-26T12:13:16.293Z,35.16
2019-06-26T12:14:16.270Z,33.97
2019-06-26T12:15:16.257Z,33.98
2019-06-26T12:16:16.254Z,33.80
2019-06-26T12:17:16.277Z,35.16
2019-06-26T12:18:16.270Z,34.29
2019-06-26T12:19:19.056Z,34.97
2019-06-26T12:20:19.665Z,35.16
2019-06-26T12:21:16.209Z,33.52
2019-06-26T12:22:16.192Z,33.12
2019-06-26T12:23:16.184Z,35.53
2019-06-26T12:24:16.188Z,33.50
2019-06-26T12:25:16.165Z,34.20
2019-06-26T12:26:16.174Z,33.63
2019-06-26T12:27:16.150Z,34.02
2019-06-26T12:28:16.141Z,34.87
2019-06-26T12:29:16.193Z,34.00
2019-06-26T12:30:16.119Z,35.06
2019-06-26T12:31:16.112Z,33.31
2019-06-26T12:32:16.102Z,33.68
2019-06-26T12:33:16.093Z,32.12
2019-06-26T12:34:16.084Z,32.89
2019-06-26T12:35:16.078Z,32.34
2019-06-26T12:36:16.268Z,33.60
2019-06-26T12:37:16.058Z,32.91
2019-06-26T12:38:16.045Z,35.05
2019-06-26T12:39:16.038Z,38.35
2019-06-26T12:40:16.026Z,35.34
2019-06-26T12:41:16.018Z,34.91
2019-06-26T12:42:16.078Z,34.02
2019-06-26T12:43:16.012Z,33.60
2019-06-26T12:44:15.991Z,33.29
2019-06-26T12:45:15.988Z,35.92
2019-06-26T12:46:18.213Z,33.72
2019-06-26T12:47:15.963Z,33.72
2019-06-26T12:48:16.547Z,33.42
2019-06-26T12:49:15.954Z,33.52
2019-06-26T12:50:15.939Z,33.54
2019-06-26T12:51:15.926Z,33.62
2019-06-26T12:52:17.099Z,33.33